Terminal Aerodrome Forecast
Issued by NWS Louisville, KY

Current Version | Previous Version | Text Only | Print | Product List | Glossary On
Versions: 1 2 3 4 5 6 7 8 9 10 11 12 13 14 15
000
FTUS43 KLMK 290500
TAFLEX
TAF
KLEX 290525Z 2906/3006 13004KT P6SM SKC
     FM291200 17008KT P6SM FEW200
     FM291600 18014G24KT P6SM FEW150
     FM292300 20011KT P6SM BKN040 BKN100
     FM300200 24011KT 6SM -SHRA BR SCT025 BKN035=

USA.gov is the U.S. government's official web portal to all federal, state and local government web resources and services.